Boone Observed Data For Previous 48 Hours

Caption
Day and Hour Reservoir Elevation (behind dam)* Tailwater Elevation (below dam)* Average Hourly Discharge*
3/22/2019 2 AM EDT 1,353.20 1,263.19 3,439
3/22/2019 3 AM EDT 1,353.36 1,263.13 3,271
3/22/2019 4 AM EDT 1,353.48 1,263.04 3,242
3/22/2019 5 AM EDT 1,353.58 1,262.93 3,318
3/22/2019 6 AM EDT 1,353.64 1,264.41 3,674
3/22/2019 7 AM EDT 1,353.63 1,264.60 7,524
3/22/2019 8 AM EDT 1,353.54 1,264.75 7,140
3/22/2019 9 AM EDT 1,353.53 1,264.75 6,622
3/22/2019 10 AM EDT 1,353.49 1,264.74 6,171
3/22/2019 11 AM EDT 1,353.46 1,264.18 6,532
3/22/2019 12 PM EDT 1,353.41 1,264.37 6,658
3/22/2019 1 PM EDT 1,353.35 1,264.66 6,621
3/22/2019 2 PM EDT 1,353.31 1,264.74 6,864
3/22/2019 3 PM EDT 1,353.27 1,264.67 6,785
3/22/2019 4 PM EDT 1,353.30 1,264.60 6,735
3/22/2019 5 PM EDT 1,353.26 1,264.42 6,606
3/22/2019 6 PM EDT 1,353.27 1,264.74 6,514
3/22/2019 7 PM EDT 1,353.21 1,264.76 6,694
3/22/2019 8 PM EDT 1,353.16 1,264.66 6,658
3/22/2019 9 PM EDT 1,353.08 1,264.74 6,716
3/22/2019 10 PM EDT 1,353.03 1,264.40 6,434
3/22/2019 11 PM EDT 1,352.98 1,264.76 6,548
3/23/2019 12 AM EDT 1,352.93 1,264.19 6,498
3/23/2019 1 AM EDT 1,352.96 1,263.06 3,168
3/23/2019 2 AM EDT 1,353.04 1,263.13 3,312
3/23/2019 3 AM EDT 1,353.14 1,263.18 3,288
3/23/2019 4 AM EDT 1,353.24 1,263.16 3,357
3/23/2019 5 AM EDT 1,353.34 1,262.97 3,359
3/23/2019 6 AM EDT 1,353.41 1,262.93 3,350
3/23/2019 7 AM EDT 1,353.46 1,263.18 3,326
3/23/2019 8 AM EDT 1,353.44 1,264.10 3,486
3/23/2019 9 AM EDT 1,353.35 1,264.74 6,517
3/23/2019 10 AM EDT 1,353.22 1,264.80 6,508
3/23/2019 11 AM EDT 1,353.10 1,264.34 6,476
3/23/2019 12 PM EDT 1,353.06 1,263.07 3,237
3/23/2019 1 PM EDT 1,353.05 1,262.78 3,436
3/23/2019 2 PM EDT 1,353.04 1,263.12 3,381
3/23/2019 3 PM EDT 1,353.01 1,262.80 3,312
3/23/2019 4 PM EDT 1,353.00 1,263.18 3,416
3/23/2019 5 PM EDT 1,352.99 1,263.14 3,301
3/23/2019 6 PM EDT 1,352.99 1,263.13 3,369
3/23/2019 7 PM EDT 1,352.90 1,264.52 3,491
3/23/2019 8 PM EDT 1,352.81 1,264.78 6,782
3/23/2019 9 PM EDT 1,352.71 1,264.66 7,119
3/23/2019 10 PM EDT 1,352.63 1,264.77 6,737
3/23/2019 11 PM EDT 1,352.67 1,263.11 3,442
3/24/2019 12 AM EDT 1,352.75 1,263.17 3,325
3/24/2019 1 AM EDT 1,352.81 1,263.15 3,355

Elevations are in feet above sea level. Discharges are in cubic feet per second and are reported at the end of the hour.